createdAt,value
2023-03-29T00:01:35.361Z,-1.93
2023-03-29T00:04:04.947Z,-1.97
2023-03-29T00:06:33.505Z,-2.00
2023-03-29T00:09:06.086Z,-2.01
2023-03-29T00:11:35.526Z,-2.03
2023-03-29T00:14:03.488Z,-2.03
2023-03-29T00:16:36.246Z,-2.04
2023-03-29T00:19:04.663Z,-2.03
2023-03-29T00:21:32.742Z,-2.02
2023-03-29T00:24:00.576Z,-2.01
2023-03-29T00:26:28.774Z,-2.01
2023-03-29T00:28:57.658Z,-2.01
2023-03-29T00:31:27.511Z,-2.04
2023-03-29T00:33:55.956Z,-2.08
2023-03-29T00:36:24.010Z,-2.11
2023-03-29T00:38:53.129Z,-2.14
2023-03-29T00:41:21.702Z,-2.15
2023-03-29T00:43:53.750Z,-2.16
2023-03-29T00:46:22.112Z,-2.18
2023-03-29T00:48:51.902Z,-2.18
2023-03-29T00:51:20.629Z,-2.17
2023-03-29T00:53:49.985Z,-2.18
2023-03-29T00:56:20.294Z,-2.18
2023-03-29T00:58:48.321Z,-2.18
2023-03-29T01:01:17.890Z,-2.18
2023-03-29T01:03:54.729Z,-2.17
2023-03-29T01:06:24.739Z,-2.16
2023-03-29T01:08:57.198Z,-2.15
2023-03-29T01:11:42.114Z,-2.15
2023-03-29T01:14:15.667Z,-2.14
2023-03-29T01:16:45.907Z,-2.14
2023-03-29T01:19:15.736Z,-2.15
2023-03-29T01:21:49.426Z,-2.17
2023-03-29T01:24:22.194Z,-2.21
2023-03-29T01:26:53.519Z,-2.23
2023-03-29T01:29:24.522Z,-2.25
2023-03-29T01:31:54.910Z,-2.28
2023-03-29T01:34:25.727Z,-2.28
2023-03-29T01:36:58.788Z,-2.29
2023-03-29T01:39:28.166Z,-2.29
2023-03-29T01:42:02.157Z,-2.29
2023-03-29T01:44:31.950Z,-2.28
2023-03-29T01:47:06.555Z,-2.29
2023-03-29T01:49:37.405Z,-2.30
2023-03-29T01:52:19.377Z,-2.31
2023-03-29T01:54:49.166Z,-2.33
2023-03-29T01:57:17.313Z,-2.34
2023-03-29T01:59:45.833Z,-2.34
2023-03-29T02:02:14.966Z,-2.35
2023-03-29T02:04:48.027Z,-2.35
2023-03-29T02:07:16.623Z,-2.34
2023-03-29T02:09:46.298Z,-2.34
2023-03-29T02:12:14.545Z,-2.34
2023-03-29T02:14:42.724Z,-2.33
2023-03-29T02:17:18.457Z,-2.33
2023-03-29T02:19:50.198Z,-2.32
2023-03-29T02:22:27.847Z,-2.33
2023-03-29T02:24:59.388Z,-2.34
2023-03-29T02:27:28.146Z,-2.34
2023-03-29T02:29:56.154Z,-2.34
2023-03-29T02:32:27.462Z,-2.35
2023-03-29T02:34:58.800Z,-2.35
2023-03-29T02:37:30.292Z,-2.36
2023-03-29T02:39:58.790Z,-2.37
2023-03-29T02:42:26.826Z,-2.39
2023-03-29T02:44:55.975Z,-2.40
2023-03-29T02:47:35.865Z,-2.44
2023-03-29T02:50:04.287Z,-2.46
2023-03-29T02:52:35.000Z,-2.45
2023-03-29T02:55:03.317Z,-2.40
2023-03-29T02:57:35.670Z,-2.37
2023-03-29T03:00:05.384Z,-2.39
2023-03-29T03:02:33.574Z,-2.40
2023-03-29T03:05:09.254Z,-2.39
2023-03-29T03:07:40.624Z,-2.40
2023-03-29T03:10:10.232Z,-2.49
2023-03-29T03:12:39.129Z,-2.64
2023-03-29T03:15:08.050Z,-2.78
2023-03-29T03:17:40.243Z,-2.88
2023-03-29T03:20:12.766Z,-2.97
2023-03-29T03:22:45.714Z,-3.06
2023-03-29T03:25:19.581Z,-3.12
2023-03-29T03:27:48.662Z,-3.16
2023-03-29T03:30:18.486Z,-3.18
2023-03-29T03:33:05.848Z,-3.19
2023-03-29T03:35:57.337Z,-3.22
2023-03-29T03:38:26.229Z,-3.23
2023-03-29T03:40:58.603Z,-3.24
2023-03-29T03:43:27.179Z,-3.24
2023-03-29T03:45:55.848Z,-3.24
2023-03-29T03:48:25.875Z,-3.24
2023-03-29T03:51:17.073Z,-3.24
2023-03-29T03:53:45.185Z,-3.24
2023-03-29T03:56:13.532Z,-3.23
2023-03-29T03:59:09.338Z,-3.24
2023-03-29T04:01:58.486Z,-3.23
2023-03-29T04:04:26.844Z,-3.23
2023-03-29T04:07:02.772Z,-3.22
2023-03-29T04:09:59.836Z,-3.22
2023-03-29T04:12:46.971Z,-3.21
2023-03-29T04:15:18.005Z,-3.19
2023-03-29T04:17:55.919Z,-3.16
2023-03-29T04:20:32.149Z,-3.09
2023-03-29T04:23:03.272Z,-3.00
2023-03-29T04:25:31.822Z,-2.91
2023-03-29T04:28:00.701Z,-2.85
2023-03-29T04:30:40.759Z,-2.82
2023-03-29T04:33:17.418Z,-2.83
2023-03-29T04:35:50.272Z,-2.87
2023-03-29T04:38:23.207Z,-2.91
2023-03-29T04:40:51.712Z,-2.91
2023-03-29T04:43:46.396Z,-2.86
2023-03-29T04:46:26.891Z,-2.79
2023-03-29T04:49:14.498Z,-2.71
2023-03-29T04:51:46.568Z,-2.65
2023-03-29T04:54:22.508Z,-2.62
2023-03-29T04:57:05.959Z,-2.57
2023-03-29T04:59:37.067Z,-2.53
2023-03-29T05:02:13.581Z,-2.47
2023-03-29T05:04:43.929Z,-2.41
2023-03-29T05:07:18.240Z,-2.36
2023-03-29T05:09:46.379Z,-2.33
2023-03-29T05:12:14.627Z,-2.34
2023-03-29T05:14:57.706Z,-2.39
2023-03-29T05:17:27.483Z,-2.44
2023-03-29T05:20:01.022Z,-2.47
2023-03-29T05:22:31.522Z,-2.47
2023-03-29T05:24:59.555Z,-2.46
2023-03-29T05:27:29.869Z,-2.43
2023-03-29T05:30:06.929Z,-2.38
2023-03-29T05:32:42.864Z,-2.31
2023-03-29T05:35:11.917Z,-2.26
2023-03-29T05:37:40.528Z,-2.17
2023-03-29T05:40:10.500Z,-2.09
2023-03-29T05:43:04.223Z,-1.96
2023-03-29T05:45:34.184Z,-1.86
2023-03-29T05:48:04.056Z,-1.80
2023-03-29T05:50:32.645Z,-1.75
2023-03-29T05:53:03.846Z,-1.71
2023-03-29T05:55:32.110Z,-1.66
2023-03-29T05:58:07.026Z,-1.61
2023-03-29T06:00:38.665Z,-1.56
2023-03-29T06:03:21.478Z,-1.52
2023-03-29T06:05:58.682Z,-1.47
2023-03-29T06:08:27.978Z,-1.41
2023-03-29T06:11:24.308Z,-1.39
2023-03-29T06:14:19.654Z,-1.36
2023-03-29T06:16:51.972Z,-1.34
2023-03-29T06:19:20.761Z,-1.36
2023-03-29T06:26:15.882Z,-1.46
2023-03-29T06:28:44.709Z,-1.43
2023-03-29T06:31:13.913Z,-1.37
2023-03-29T06:33:43.318Z,-1.29
2023-03-29T06:36:34.997Z,-1.15
2023-03-29T06:39:04.131Z,-1.01
2023-03-29T06:41:58.003Z,-0.87
2023-03-29T06:44:49.569Z,-0.78
2023-03-29T06:47:20.882Z,-0.76
2023-03-29T06:49:48.966Z,-0.75
2023-03-29T06:52:37.411Z,-0.72
2023-03-29T06:55:07.665Z,-0.68
2023-03-29T06:57:40.065Z,-0.65
2023-03-29T07:00:31.887Z,-0.62
2023-03-29T07:03:08.323Z,-0.56
2023-03-29T07:05:41.080Z,-0.52
2023-03-29T07:08:15.425Z,-0.45
2023-03-29T07:11:09.056Z,-0.37
2023-03-29T07:13:51.147Z,-0.32
2023-03-29T07:16:20.805Z,-0.25
2023-03-29T07:19:11.273Z,-0.18
2023-03-29T07:21:58.839Z,-0.14
2023-03-29T07:24:38.112Z,-0.10
2023-03-29T07:27:08.959Z,-0.04
2023-03-29T07:29:37.805Z,0.03
2023-03-29T07:32:06.677Z,0.05
2023-03-29T07:34:44.460Z,0.01
2023-03-29T07:37:24.999Z,-0.03
2023-03-29T07:39:53.802Z,-0.03
2023-03-29T07:42:46.828Z,-0.00
2023-03-29T07:45:20.505Z,0.02
2023-03-29T07:48:14.664Z,0.04
2023-03-29T07:51:06.369Z,0.03
2023-03-29T07:53:45.539Z,0.05
2023-03-29T07:56:27.129Z,0.08
2023-03-29T07:59:12.708Z,0.10
2023-03-29T08:01:41.668Z,0.10
2023-03-29T08:04:32.717Z,0.08
2023-03-29T08:07:24.482Z,0.09
2023-03-29T08:10:03.424Z,0.12
2023-03-29T08:12:52.630Z,0.18
2023-03-29T08:15:24.359Z,0.22
2023-03-29T08:17:53.647Z,0.16
2023-03-29T08:20:24.185Z,0.07
2023-03-29T08:22:56.280Z,0.03
2023-03-29T08:25:32.633Z,0.07
2023-03-29T08:28:01.516Z,0.12
2023-03-29T08:30:36.396Z,0.19
2023-03-29T08:33:05.484Z,0.26
2023-03-29T08:35:34.472Z,0.30
2023-03-29T08:38:23.017Z,0.33
2023-03-29T08:40:51.931Z,0.31
2023-03-29T08:43:58.534Z,0.28
2023-03-29T08:46:55.835Z,0.21
2023-03-29T08:49:40.172Z,0.19
2023-03-29T08:52:17.387Z,0.16
2023-03-29T09:02:30.671Z,0.27
2023-03-29T09:05:34.477Z,0.27
2023-03-29T09:08:17.294Z,0.30
2023-03-29T09:10:48.809Z,0.34
2023-03-29T09:13:33.612Z,0.37
2023-03-29T09:16:15.545Z,0.41
2023-03-29T09:18:53.956Z,0.53
2023-03-29T09:22:05.221Z,0.73
2023-03-29T09:24:43.106Z,0.89
2023-03-29T09:27:41.330Z,0.89
2023-03-29T09:30:27.663Z,0.86
2023-03-29T09:33:13.034Z,0.81
2023-03-29T09:36:07.373Z,0.83
2023-03-29T09:38:39.716Z,0.92
2023-03-29T09:41:21.466Z,1.06
2023-03-29T09:43:50.920Z,1.16
2023-03-29T09:46:41.810Z,1.19
2023-03-29T09:49:31.215Z,1.19
2023-03-29T09:52:02.220Z,1.23
2023-03-29T09:54:47.968Z,1.26
2023-03-29T09:57:28.490Z,1.25
2023-03-29T09:59:57.387Z,1.24
2023-03-29T10:02:30.648Z,1.28
2023-03-29T10:05:01.033Z,1.32
2023-03-29T10:07:46.431Z,1.35
2023-03-29T10:10:22.854Z,1.38
2023-03-29T10:12:52.675Z,1.39
2023-03-29T10:15:30.019Z,1.43
2023-03-29T10:18:05.897Z,1.53
2023-03-29T10:20:38.547Z,1.61
2023-03-29T10:23:08.600Z,1.65
2023-03-29T10:25:41.001Z,1.69
2023-03-29T10:28:16.523Z,1.77
2023-03-29T10:30:45.935Z,1.85
2023-03-29T10:33:19.989Z,1.93
2023-03-29T10:35:48.669Z,1.99
2023-03-29T10:38:19.083Z,2.02
2023-03-29T10:40:48.814Z,2.01
2023-03-29T10:43:17.134Z,1.94
2023-03-29T10:45:49.021Z,1.85
2023-03-29T10:48:17.889Z,1.83
2023-03-29T10:50:50.478Z,1.88
2023-03-29T10:53:26.370Z,2.00
2023-03-29T10:55:58.820Z,2.11
2023-03-29T10:58:43.741Z,2.17
2023-03-29T11:01:17.848Z,2.18
2023-03-29T11:03:55.785Z,2.15
2023-03-29T11:06:48.837Z,2.08
2023-03-29T11:09:24.107Z,2.11
2023-03-29T11:12:12.234Z,2.19
2023-03-29T11:15:12.768Z,2.22
2023-03-29T11:17:41.233Z,2.32
2023-03-29T11:20:12.711Z,2.41
2023-03-29T11:22:47.617Z,2.44
2023-03-29T11:25:34.375Z,2.37
2023-03-29T11:28:29.250Z,2.33
2023-03-29T11:31:19.339Z,2.38
2023-03-29T11:33:49.778Z,2.50
2023-03-29T11:36:23.927Z,2.58
2023-03-29T11:39:12.166Z,2.62
2023-03-29T11:41:46.790Z,2.70
2023-03-29T11:44:22.546Z,2.78
2023-03-29T11:46:56.823Z,2.81
2023-03-29T11:49:30.560Z,2.80
2023-03-29T11:52:18.077Z,2.81
2023-03-29T11:54:49.326Z,2.88
2023-03-29T11:57:35.206Z,2.98
2023-03-29T12:00:06.095Z,3.02
2023-03-29T12:03:05.596Z,3.04
2023-03-29T12:05:43.609Z,3.16
2023-03-29T12:08:31.490Z,3.29
2023-03-29T12:11:04.971Z,3.36
2023-03-29T12:13:39.202Z,3.39
2023-03-29T12:16:15.053Z,3.43
2023-03-29T12:18:46.970Z,3.46
2023-03-29T12:21:26.219Z,3.52
2023-03-29T12:23:55.537Z,3.57
2023-03-29T12:26:42.103Z,3.58
2023-03-29T12:29:34.852Z,3.60
2023-03-29T12:32:21.628Z,3.61
2023-03-29T12:35:31.028Z,3.58
2023-03-29T12:38:29.341Z,3.57
2023-03-29T12:41:19.535Z,3.60
2023-03-29T12:44:08.951Z,3.64
2023-03-29T12:46:51.108Z,3.66
2023-03-29T12:49:28.080Z,3.60
2023-03-29T12:51:57.541Z,3.53
2023-03-29T12:54:28.656Z,3.49
2023-03-29T12:57:00.864Z,3.46
2023-03-29T12:59:46.899Z,3.48
2023-03-29T13:02:15.218Z,3.53
2023-03-29T13:04:43.629Z,3.58
2023-03-29T16:32:04.049Z,2.81
2023-03-29T16:34:35.685Z,2.75
2023-03-29T16:37:03.798Z,2.70
2023-03-29T16:39:35.304Z,2.65
2023-03-29T16:42:02.221Z,2.59
2023-03-29T16:44:29.369Z,2.52
2023-03-29T16:46:58.993Z,2.45
2023-03-29T16:49:26.886Z,2.37
2023-03-29T16:52:00.378Z,2.31
2023-03-29T16:54:31.034Z,2.25
2023-03-29T16:56:57.815Z,2.18
2023-03-29T16:59:25.638Z,2.13
2023-03-29T17:01:52.440Z,2.07
2023-03-29T17:04:19.804Z,2.02
2023-03-29T17:06:48.075Z,1.98
2023-03-29T17:09:17.039Z,1.93
2023-03-29T17:11:44.269Z,1.89
2023-03-29T17:14:11.196Z,1.86
2023-03-29T17:16:38.004Z,1.80
2023-03-29T17:19:05.001Z,1.76
2023-03-29T17:21:31.785Z,1.73
2023-03-29T17:23:58.470Z,1.72
2023-03-29T17:26:25.511Z,1.69
2023-03-29T17:28:52.371Z,1.65
2023-03-29T17:31:19.212Z,1.60
2023-03-29T17:33:49.796Z,1.57
2023-03-29T17:36:16.652Z,1.53
2023-03-29T17:38:48.199Z,1.50
2023-03-29T17:41:15.374Z,1.46
2023-03-29T17:43:45.225Z,1.42
2023-03-29T17:46:12.187Z,1.39
2023-03-29T17:48:39.043Z,1.36
2023-03-29T17:51:06.665Z,1.32
2023-03-29T17:53:33.488Z,1.27
2023-03-29T17:56:00.395Z,1.24
2023-03-29T17:58:27.632Z,1.21
2023-03-29T18:00:55.016Z,1.20
2023-03-29T18:03:22.580Z,1.20
2023-03-29T18:05:49.623Z,1.20
2023-03-29T18:08:16.278Z,1.19
2023-03-29T18:10:43.890Z,1.19
2023-03-29T18:13:13.267Z,1.17
2023-03-29T18:15:39.989Z,1.14
2023-03-29T18:18:06.565Z,1.13
2023-03-29T18:20:33.989Z,1.10
2023-03-29T18:23:06.222Z,1.09
2023-03-29T18:25:34.429Z,1.09
2023-03-29T18:28:01.264Z,1.12
2023-03-29T18:30:28.291Z,1.15
2023-03-29T18:32:55.430Z,1.18
2023-03-29T18:35:22.471Z,1.20
2023-03-29T18:37:51.636Z,1.20
2023-03-29T18:40:20.486Z,1.19
2023-03-29T18:42:47.499Z,1.19
2023-03-29T18:45:15.470Z,1.20
2023-03-29T18:47:49.798Z,1.22
2023-03-29T18:50:17.488Z,1.22
2023-03-29T18:52:44.160Z,1.23
2023-03-29T18:55:10.986Z,1.25
2023-03-29T18:57:37.826Z,1.26
2023-03-29T19:00:13.579Z,1.26
2023-03-29T19:02:41.901Z,1.26
2023-03-29T19:05:09.049Z,1.26
2023-03-29T19:07:35.824Z,1.25
2023-03-29T19:10:03.527Z,1.23
2023-03-29T19:12:32.548Z,1.21
2023-03-29T19:15:06.602Z,1.21
2023-03-29T19:17:34.055Z,1.19
2023-03-29T19:20:00.824Z,1.17
2023-03-29T19:22:27.942Z,1.16
2023-03-29T19:24:54.851Z,1.15
2023-03-29T19:27:27.182Z,1.13
2023-03-29T19:29:54.183Z,1.10
2023-03-29T19:32:20.824Z,1.10
2023-03-29T19:34:47.544Z,1.12
2023-03-29T19:37:16.247Z,1.12
2023-03-29T19:39:43.780Z,1.11
2023-03-29T19:42:10.656Z,1.11
2023-03-29T19:44:37.809Z,1.10
2023-03-29T19:47:05.038Z,1.08
2023-03-29T19:49:33.335Z,1.07
2023-03-29T19:52:00.185Z,1.03
2023-03-29T19:54:27.901Z,1.00
2023-03-29T19:56:56.675Z,0.97
2023-03-29T19:59:26.948Z,0.97
2023-03-29T20:02:01.712Z,0.97
2023-03-29T20:04:29.079Z,0.97
2023-03-29T20:06:56.983Z,0.96
2023-03-29T20:09:23.736Z,0.96
2023-03-29T20:11:55.602Z,0.94
2023-03-29T20:14:22.478Z,0.92
2023-03-29T20:16:50.039Z,0.90
2023-03-29T20:19:16.818Z,0.89
2023-03-29T20:21:43.735Z,0.87
2023-03-29T20:24:10.860Z,0.85
2023-03-29T20:26:37.600Z,0.83
2023-03-29T20:29:13.277Z,0.81
2023-03-29T20:31:44.147Z,0.79
2023-03-29T20:34:19.026Z,0.77
2023-03-29T20:36:46.719Z,0.77
2023-03-29T20:39:17.632Z,0.76
2023-03-29T20:41:46.939Z,0.72
2023-03-29T20:44:16.001Z,0.69
2023-03-29T20:46:45.850Z,0.64
2023-03-29T20:49:12.706Z,0.60
2023-03-29T20:51:42.249Z,0.55
2023-03-29T20:54:09.899Z,0.48
2023-03-29T20:56:39.342Z,0.41
2023-03-29T20:59:09.851Z,0.33
2023-03-29T21:01:39.919Z,0.25
2023-03-29T21:04:08.572Z,0.17
2023-03-29T21:06:38.765Z,0.09
2023-03-29T21:09:05.458Z,0.02
2023-03-29T21:11:33.218Z,-0.05
2023-03-29T21:14:02.005Z,-0.12
2023-03-29T21:16:29.109Z,-0.18
2023-03-29T21:18:56.120Z,-0.25
2023-03-29T21:21:23.120Z,-0.32
2023-03-29T21:23:50.202Z,-0.38
2023-03-29T21:26:17.046Z,-0.45
2023-03-29T21:28:43.879Z,-0.54
2023-03-29T21:31:10.970Z,-0.62
2023-03-29T21:33:38.921Z,-0.70
2023-03-29T21:36:06.198Z,-0.79
2023-03-29T21:38:33.195Z,-0.87
2023-03-29T21:41:01.797Z,-0.94
2023-03-29T21:43:28.730Z,-1.02
2023-03-29T21:45:56.912Z,-1.10
2023-03-29T21:48:23.957Z,-1.19
2023-03-29T21:50:51.158Z,-1.26
2023-03-29T21:53:17.976Z,-1.32
2023-03-29T21:55:48.316Z,-1.38
2023-03-29T21:58:15.688Z,-1.45
2023-03-29T22:00:42.409Z,-1.52
2023-03-29T22:03:10.894Z,-1.57
2023-03-29T22:05:37.675Z,-1.63
2023-03-29T22:08:06.005Z,-1.67
2023-03-29T22:10:32.859Z,-1.74
2023-03-29T22:13:11.906Z,-1.80
2023-03-29T22:15:38.947Z,-1.86
2023-03-29T22:18:07.698Z,-1.90
2023-03-29T22:20:42.003Z,-1.92
2023-03-29T22:23:09.058Z,-1.95
2023-03-29T22:25:36.325Z,-1.97
2023-03-29T22:28:05.612Z,-2.00
2023-03-29T22:30:32.772Z,-2.04
2023-03-29T22:32:59.696Z,-2.08
2023-03-29T22:35:26.624Z,-2.12
2023-03-29T22:37:53.805Z,-2.18
2023-03-29T22:40:21.399Z,-2.23
2023-03-29T22:42:48.349Z,-2.27
2023-03-29T22:45:15.464Z,-2.29
2023-03-29T22:47:42.214Z,-2.32
2023-03-29T22:50:10.067Z,-2.35
2023-03-29T22:52:37.143Z,-2.40
2023-03-29T22:55:04.705Z,-2.47
2023-03-29T22:57:32.147Z,-2.51
2023-03-29T22:59:59.094Z,-2.54
2023-03-29T23:02:25.726Z,-2.57
2023-03-29T23:04:57.511Z,-2.61
2023-03-29T23:07:24.149Z,-2.66
2023-03-29T23:09:51.203Z,-2.70
2023-03-29T23:12:19.579Z,-2.74
2023-03-29T23:14:46.598Z,-2.77
2023-03-29T23:17:18.409Z,-2.79
2023-03-29T23:19:45.339Z,-2.82
2023-03-29T23:22:13.024Z,-2.87
2023-03-29T23:24:46.024Z,-2.90
2023-03-29T23:27:13.846Z,-2.96
2023-03-29T23:29:41.653Z,-2.99
2023-03-29T23:32:08.602Z,-3.04
2023-03-29T23:34:35.280Z,-3.09
2023-03-29T23:37:02.604Z,-3.12
2023-03-29T23:39:30.079Z,-3.14
2023-03-29T23:41:56.809Z,-3.16
2023-03-29T23:44:23.737Z,-3.19
2023-03-29T23:46:50.628Z,-3.25
2023-03-29T23:49:17.945Z,-3.28
2023-03-29T23:51:47.575Z,-3.32
2023-03-29T23:54:16.141Z,-3.36
2023-03-29T23:56:45.261Z,-3.38
2023-03-29T23:59:12.410Z,-3.40
